sensor_id;sensor_type;location;lat;lon;timestamp;pressure;altitude;pressure_sealevel;temperature;humidity
14242;BME280;7205;50.864;12.766;2023-02-14T00:00:28;99647.63;;;6.69;86.98
14242;BME280;7205;50.864;12.766;2023-02-14T00:02:55;99643.13;;;6.71;86.83
14242;BME280;7205;50.864;12.766;2023-02-14T00:05:23;99646.44;;;6.73;87.28
14242;BME280;7205;50.864;12.766;2023-02-14T00:07:50;99642.06;;;6.74;87.20
14242;BME280;7205;50.864;12.766;2023-02-14T00:10:17;99635.13;;;6.73;86.95
14242;BME280;7205;50.864;12.766;2023-02-14T00:12:44;99642.78;;;6.76;87.20
14242;BME280;7205;50.864;12.766;2023-02-14T00:15:11;99642.69;;;6.77;87.21
14242;BME280;7205;50.864;12.766;2023-02-14T00:17:50;99638.19;;;6.79;87.10
14242;BME280;7205;50.864;12.766;2023-02-14T00:20:17;99646.69;;;6.83;87.39
14242;BME280;7205;50.864;12.766;2023-02-14T00:22:46;99647.34;;;6.86;87.31
14242;BME280;7205;50.864;12.766;2023-02-14T00:25:13;99642.00;;;6.88;87.14
14242;BME280;7205;50.864;12.766;2023-02-14T00:27:40;99643.56;;;6.90;87.68
14242;BME280;7205;50.864;12.766;2023-02-14T00:30:10;99645.97;;;6.93;87.16
14242;BME280;7205;50.864;12.766;2023-02-14T00:32:37;99638.84;;;6.95;87.33
14242;BME280;7205;50.864;12.766;2023-02-14T00:35:05;99629.91;;;6.98;87.21
14242;BME280;7205;50.864;12.766;2023-02-14T00:37:32;99628.03;;;7.00;87.47
14242;BME280;7205;50.864;12.766;2023-02-14T00:40:00;99626.97;;;7.02;87.25
14242;BME280;7205;50.864;12.766;2023-02-14T00:42:27;99623.38;;;7.03;86.66
14242;BME280;7205;50.864;12.766;2023-02-14T00:44:54;99618.88;;;7.05;86.65
14242;BME280;7205;50.864;12.766;2023-02-14T00:47:21;99621.28;;;7.08;87.01
14242;BME280;7205;50.864;12.766;2023-02-14T00:49:50;99616.03;;;7.08;86.28
14242;BME280;7205;50.864;12.766;2023-02-14T00:52:17;99615.00;;;7.11;86.51
14242;BME280;7205;50.864;12.766;2023-02-14T00:54:44;99609.75;;;7.11;86.40
14242;BME280;7205;50.864;12.766;2023-02-14T00:57:14;99614.88;;;7.12;85.87
14242;BME280;7205;50.864;12.766;2023-02-14T00:59:41;99607.97;;;7.11;86.04
14242;BME280;7205;50.864;12.766;2023-02-14T01:02:07;99606.06;;;7.13;85.64
14242;BME280;7205;50.864;12.766;2023-02-14T01:04:34;99609.53;;;7.14;85.82
14242;BME280;7205;50.864;12.766;2023-02-14T01:07:01;99611.94;;;7.17;85.42
14242;BME280;7205;50.864;12.766;2023-02-14T01:09:28;99605.88;;;7.16;85.69
14242;BME280;7205;50.864;12.766;2023-02-14T01:11:55;99600.63;;;7.16;85.31
14242;BME280;7205;50.864;12.766;2023-02-14T01:14:23;99594.63;;;7.14;85.34
14242;BME280;7205;50.864;12.766;2023-02-14T01:16:50;99596.19;;;7.17;85.26
14242;BME280;7205;50.864;12.766;2023-02-14T01:19:17;99590.81;;;7.18;85.22
14242;BME280;7205;50.864;12.766;2023-02-14T01:21:43;99590.81;;;7.18;85.19
14242;BME280;7205;50.864;12.766;2023-02-14T01:24:11;99587.25;;;7.19;85.18
14242;BME280;7205;50.864;12.766;2023-02-14T01:26:41;99590.63;;;7.21;84.76
14242;BME280;7205;50.864;12.766;2023-02-14T01:29:08;99590.53;;;7.23;85.34
14242;BME280;7205;50.864;12.766;2023-02-14T01:31:36;99586.94;;;7.24;84.94
14242;BME280;7205;50.864;12.766;2023-02-14T01:34:03;99589.56;;;7.24;84.63
14242;BME280;7205;50.864;12.766;2023-02-14T01:36:32;99586.00;;;7.25;84.58
14242;BME280;7205;50.864;12.766;2023-02-14T01:39:01;99585.03;;;7.26;84.52
14242;BME280;7205;50.864;12.766;2023-02-14T01:41:33;99588.53;;;7.26;84.72
14242;BME280;7205;50.864;12.766;2023-02-14T01:44:03;99586.72;;;7.27;84.22
14242;BME280;7205;50.864;12.766;2023-02-14T01:46:32;99585.78;;;7.28;84.41
14242;BME280;7205;50.864;12.766;2023-02-14T01:49:04;99583.16;;;7.28;84.18
14242;BME280;7205;50.864;12.766;2023-02-14T01:51:37;99588.41;;;7.28;84.50
14242;BME280;7205;50.864;12.766;2023-02-14T01:54:05;99592.59;;;7.30;83.78
14242;BME280;7205;50.864;12.766;2023-02-14T01:56:36;99590.94;;;7.29;83.88
14242;BME280;7205;50.864;12.766;2023-02-14T01:59:05;99589.34;;;7.27;83.89
14242;BME280;7205;50.864;12.766;2023-02-14T02:01:33;99578.00;;;7.26;83.90
14242;BME280;7205;50.864;12.766;2023-02-14T02:04:04;99583.16;;;7.28;83.76
14242;BME280;7205;50.864;12.766;2023-02-14T02:06:35;99582.31;;;7.27;84.14
14242;BME280;7205;50.864;12.766;2023-02-14T02:09:10;99575.28;;;7.28;84.32
14242;BME280;7205;50.864;12.766;2023-02-14T02:11:39;99583.06;;;7.29;84.28
14242;BME280;7205;50.864;12.766;2023-02-14T02:14:11;99576.94;;;7.29;84.04
14242;BME280;7205;50.864;12.766;2023-02-14T02:16:50;99581.28;;;7.30;84.15
14242;BME280;7205;50.864;12.766;2023-02-14T02:19:59;99573.38;;;7.30;83.97
14242;BME280;7205;50.864;12.766;2023-02-14T02:25:43;99566.31;;;7.30;83.77
14242;BME280;7205;50.864;12.766;2023-02-14T02:28:54;99568.94;;;7.30;83.86
14242;BME280;7205;50.864;12.766;2023-02-14T02:31:46;99569.81;;;7.31;84.04
14242;BME280;7205;50.864;12.766;2023-02-14T02:34:35;99562.78;;;7.31;83.83
14242;BME280;7205;50.864;12.766;2023-02-14T02:37:22;99553.06;;;7.32;84.04
14242;BME280;7205;50.864;12.766;2023-02-14T02:40:02;99551.28;;;7.32;83.98
14242;BME280;7205;50.864;12.766;2023-02-14T02:42:39;99554.88;;;7.31;83.91
14242;BME280;7205;50.864;12.766;2023-02-14T02:45:12;99552.97;;;7.33;83.97
14242;BME280;7205;50.864;12.766;2023-02-14T02:47:50;99553.06;;;7.32;83.74
14242;BME280;7205;50.864;12.766;2023-02-14T02:50:25;99552.88;;;7.35;83.81
14242;BME280;7205;50.864;12.766;2023-02-14T02:53:19;99545.19;;;7.32;84.07
14242;BME280;7205;50.864;12.766;2023-02-14T02:55:52;99541.63;;;7.33;83.78
14242;BME280;7205;50.864;12.766;2023-02-14T02:58:44;99541.75;;;7.31;83.85
14242;BME280;7205;50.864;12.766;2023-02-14T03:01:14;99543.53;;;7.31;83.58
14242;BME280;7205;50.864;12.766;2023-02-14T03:03:51;99538.72;;;7.25;83.42
14242;BME280;7205;50.864;12.766;2023-02-14T03:06:37;99539.41;;;7.27;83.23
14242;BME280;7205;50.864;12.766;2023-02-14T03:09:11;99534.06;;;7.28;83.59
14242;BME280;7205;50.864;12.766;2023-02-14T03:11:47;99533.25;;;7.28;83.73
14242;BME280;7205;50.864;12.766;2023-02-14T03:14:20;99542.03;;;7.27;83.89
14242;BME280;7205;50.864;12.766;2023-02-14T03:16:58;99538.72;;;7.25;83.41
14242;BME280;7205;50.864;12.766;2023-02-14T03:19:45;99545.97;;;7.21;83.67
14242;BME280;7205;50.864;12.766;2023-02-14T03:22:43;99538.09;;;7.21;84.03
14242;BME280;7205;50.864;12.766;2023-02-14T03:25:25;99539.53;;;7.25;83.55
14242;BME280;7205;50.864;12.766;2023-02-14T03:28:11;99544.78;;;7.25;83.82
14242;BME280;7205;50.864;12.766;2023-02-14T03:30:46;99540.38;;;7.26;83.69
14242;BME280;7205;50.864;12.766;2023-02-14T03:33:18;99548.16;;;7.27;84.40
14242;BME280;7205;50.864;12.766;2023-02-14T03:36:00;99550.56;;;7.30;84.42
14242;BME280;7205;50.864;12.766;2023-02-14T03:38:32;99553.06;;;7.32;84.22
14242;BME280;7205;50.864;12.766;2023-02-14T03:41:04;99544.25;;;7.33;84.25
14242;BME280;7205;50.864;12.766;2023-02-14T03:43:35;99544.16;;;7.34;84.12
14242;BME280;7205;50.864;12.766;2023-02-14T03:46:06;99537.13;;;7.35;83.75
14242;BME280;7205;50.864;12.766;2023-02-14T03:48:36;99538.78;;;7.36;84.22
14242;BME280;7205;50.864;12.766;2023-02-14T03:51:06;99545.59;;;7.38;84.11
14242;BME280;7205;50.864;12.766;2023-02-14T03:53:35;99542.97;;;7.38;84.10
14242;BME280;7205;50.864;12.766;2023-02-14T03:56:09;99545.59;;;7.38;84.28
14242;BME280;7205;50.864;12.766;2023-02-14T03:58:42;99550.78;;;7.40;83.84
14242;BME280;7205;50.864;12.766;2023-02-14T04:01:15;99549.81;;;7.41;84.12
14242;BME280;7205;50.864;12.766;2023-02-14T04:03:45;99542.78;;;7.41;84.10
14242;BME280;7205;50.864;12.766;2023-02-14T04:06:12;99548.03;;;7.41;83.98
14242;BME280;7205;50.864;12.766;2023-02-14T04:08:42;99543.59;;;7.42;83.78
14242;BME280;7205;50.864;12.766;2023-02-14T04:11:11;99541.72;;;7.44;84.31
14242;BME280;7205;50.864;12.766;2023-02-14T04:13:38;99539.31;;;7.41;83.92
14242;BME280;7205;50.864;12.766;2023-02-14T04:16:05;99535.72;;;7.42;83.65
14242;BME280;7205;50.864;12.766;2023-02-14T04:18:32;99545.53;;;7.40;83.46
14242;BME280;7205;50.864;12.766;2023-02-14T04:21:17;99538.44;;;7.40;83.66
14242;BME280;7205;50.864;12.766;2023-02-14T04:23:44;99542.03;;;7.39;84.05
14242;BME280;7205;50.864;12.766;2023-02-14T04:26:12;99538.34;;;7.42;83.71
14242;BME280;7205;50.864;12.766;2023-02-14T04:28:39;99533.19;;;7.40;83.58
14242;BME280;7205;50.864;12.766;2023-02-14T04:31:06;99533.94;;;7.42;83.82
14242;BME280;7205;50.864;12.766;2023-02-14T04:33:34;99527.81;;;7.42;83.52
14242;BME280;7205;50.864;12.766;2023-02-14T04:36:01;99534.78;;;7.43;83.45
14242;BME280;7205;50.864;12.766;2023-02-14T04:38:28;99523.53;;;7.41;83.54
14242;BME280;7205;50.864;12.766;2023-02-14T04:40:55;99528.91;;;7.39;83.50
14242;BME280;7205;50.864;12.766;2023-02-14T04:43:23;99526.28;;;7.39;83.52
14242;BME280;7205;50.864;12.766;2023-02-14T04:45:50;99528.78;;;7.41;83.78
14242;BME280;7205;50.864;12.766;2023-02-14T04:48:16;99519.13;;;7.41;83.87
14242;BME280;7205;50.864;12.766;2023-02-14T04:50:43;99524.38;;;7.41;83.93
14242;BME280;7205;50.864;12.766;2023-02-14T04:53:10;99520.69;;;7.44;83.65
14242;BME280;7205;50.864;12.766;2023-02-14T04:55:37;99521.41;;;7.46;83.60
14242;BME280;7205;50.864;12.766;2023-02-14T04:58:04;99523.94;;;7.47;83.82
14242;BME280;7205;50.864;12.766;2023-02-14T05:00:32;99516.91;;;7.48;83.39
14242;BME280;7205;50.864;12.766;2023-02-14T05:02:59;99520.25;;;7.50;84.00
14242;BME280;7205;50.864;12.766;2023-02-14T05:05:25;99509.00;;;7.48;83.82
14242;BME280;7205;50.864;12.766;2023-02-14T05:07:52;99514.16;;;7.49;83.33
14242;BME280;7205;50.864;12.766;2023-02-14T05:10:19;99519.41;;;7.49;83.27
14242;BME280;7205;50.864;12.766;2023-02-14T05:12:46;99516.06;;;7.47;83.29
14242;BME280;7205;50.864;12.766;2023-02-14T05:15:13;99517.72;;;7.48;82.97
14242;BME280;7205;50.864;12.766;2023-02-14T05:17:41;99521.19;;;7.49;83.16
14242;BME280;7205;50.864;12.766;2023-02-14T05:20:11;99511.63;;;7.48;83.31
14242;BME280;7205;50.864;12.766;2023-02-14T05:22:38;99516.78;;;7.49;82.96
14242;BME280;7205;50.864;12.766;2023-02-14T05:25:05;99508.78;;;7.51;83.09
14242;BME280;7205;50.864;12.766;2023-02-14T05:27:32;99502.06;;;7.47;82.89
14242;BME280;7205;50.864;12.766;2023-02-14T05:29:59;99514.03;;;7.51;83.14
14242;BME280;7205;50.864;12.766;2023-02-14T05:32:26;99511.31;;;7.52;83.26
14242;BME280;7205;50.864;12.766;2023-02-14T05:34:54;99522.66;;;7.53;83.49
14242;BME280;7205;50.864;12.766;2023-02-14T05:37:21;99514.03;;;7.51;83.47
14242;BME280;7205;50.864;12.766;2023-02-14T05:39:48;99520.25;;;7.50;82.88
14242;BME280;7205;50.864;12.766;2023-02-14T05:42:21;99515.00;;;7.50;83.02
14242;BME280;7205;50.864;12.766;2023-02-14T05:44:47;99518.34;;;7.52;83.29
14242;BME280;7205;50.864;12.766;2023-02-14T05:47:14;99505.41;;;7.49;83.10
14242;BME280;7205;50.864;12.766;2023-02-14T05:49:41;99511.31;;;7.52;83.47
14242;BME280;7205;50.864;12.766;2023-02-14T05:52:09;99518.22;;;7.53;83.36
14242;BME280;7205;50.864;12.766;2023-02-14T05:54:36;99516.56;;;7.52;83.70
14242;BME280;7205;50.864;12.766;2023-02-14T05:57:03;99511.19;;;7.54;83.61
14242;BME280;7205;50.864;12.766;2023-02-14T05:59:30;99507.81;;;7.52;83.64
14242;BME280;7205;50.864;12.766;2023-02-14T06:01:56;99513.94;;;7.52;83.60
14242;BME280;7205;50.864;12.766;2023-02-14T06:04:26;99514.56;;;7.56;83.46
14242;BME280;7205;50.864;12.766;2023-02-14T06:06:53;99502.56;;;7.52;83.45
14242;BME280;7205;50.864;12.766;2023-02-14T06:09:22;99512.16;;;7.53;83.08
14242;BME280;7205;50.864;12.766;2023-02-14T06:11:49;99514.66;;;7.54;83.83
14242;BME280;7205;50.864;12.766;2023-02-14T06:14:16;99516.44;;;7.54;83.53
14242;BME280;7205;50.864;12.766;2023-02-14T06:16:43;99517.28;;;7.54;83.51
14242;BME280;7205;50.864;12.766;2023-02-14T06:19:10;99510.34;;;7.53;83.46
14242;BME280;7205;50.864;12.766;2023-02-14T06:21:36;99518.03;;;7.56;83.87
14242;BME280;7205;50.864;12.766;2023-02-14T06:24:03;99511.81;;;7.57;83.79
14242;BME280;7205;50.864;12.766;2023-02-14T06:26:32;99518.72;;;7.58;83.96
14242;BME280;7205;50.864;12.766;2023-02-14T06:29:02;99522.94;;;7.61;83.96
14242;BME280;7205;50.864;12.766;2023-02-14T06:31:29;99518.53;;;7.61;83.92
14242;BME280;7205;50.864;12.766;2023-02-14T06:33:56;99527.25;;;7.62;84.18
14242;BME280;7205;50.864;12.766;2023-02-14T06:36:23;99531.47;;;7.64;84.48
14242;BME280;7205;50.864;12.766;2023-02-14T06:38:50;99526.09;;;7.66;84.24
14242;BME280;7205;50.864;12.766;2023-02-14T06:41:17;99533.97;;;7.66;84.67
14242;BME280;7205;50.864;12.766;2023-02-14T06:43:46;99522.50;;;7.67;84.18
14242;BME280;7205;50.864;12.766;2023-02-14T06:46:14;99525.00;;;7.68;84.56
14242;BME280;7205;50.864;12.766;2023-02-14T06:48:41;99525.75;;;7.71;84.70
14242;BME280;7205;50.864;12.766;2023-02-14T06:51:08;99524.69;;;7.73;84.80
14242;BME280;7205;50.864;12.766;2023-02-14T06:53:38;99525.31;;;7.77;85.09
14242;BME280;7205;50.864;12.766;2023-02-14T06:56:07;99522.34;;;7.81;84.74
14242;BME280;7205;50.864;12.766;2023-02-14T06:58:34;99515.06;;;7.85;84.81
14242;BME280;7205;50.864;12.766;2023-02-14T07:01:02;99518.94;;;7.92;85.13
14242;BME280;7205;50.864;12.766;2023-02-14T07:03:29;99513.44;;;7.95;84.77
14242;BME280;7205;50.864;12.766;2023-02-14T07:05:59;99521.00;;;7.99;84.70
14242;BME280;7205;50.864;12.766;2023-02-14T07:08:26;99513.72;;;8.03;84.89
14242;BME280;7205;50.864;12.766;2023-02-14T07:10:54;99510.84;;;8.06;84.58
14242;BME280;7205;50.864;12.766;2023-02-14T07:13:21;99507.28;;;8.07;84.81
14242;BME280;7205;50.864;12.766;2023-02-14T07:15:48;99506.31;;;8.08;84.61
14242;BME280;7205;50.864;12.766;2023-02-14T07:18:16;99502.75;;;8.09;84.06
14242;BME280;7205;50.864;12.766;2023-02-14T07:20:43;99496.66;;;8.08;84.25
14242;BME280;7205;50.864;12.766;2023-02-14T07:23:10;99502.03;;;8.07;83.78
14242;BME280;7205;50.864;12.766;2023-02-14T07:25:37;99494.38;;;8.04;83.31
14242;BME280;7205;50.864;12.766;2023-02-14T07:28:05;99491.13;;;8.00;83.54
14242;BME280;7205;50.864;12.766;2023-02-14T07:30:32;99492.19;;;7.98;83.62
14242;BME280;7205;50.864;12.766;2023-02-14T07:32:59;99489.03;;;7.93;83.27
14242;BME280;7205;50.864;12.766;2023-02-14T07:35:27;99487.50;;;7.90;83.53
14242;BME280;7205;50.864;12.766;2023-02-14T07:37:56;99489.41;;;7.88;83.46
14242;BME280;7205;50.864;12.766;2023-02-14T07:40:23;99491.75;;;7.80;83.38
14242;BME280;7205;50.864;12.766;2023-02-14T07:42:54;99487.78;;;7.75;83.05
14242;BME280;7205;50.864;12.766;2023-02-14T07:45:22;99485.00;;;7.65;83.08
14242;BME280;7205;50.864;12.766;2023-02-14T07:47:50;99479.53;;;7.55;82.87
14242;BME280;7205;50.864;12.766;2023-02-14T07:50:20;99484.91;;;7.54;83.38
14242;BME280;7205;50.864;12.766;2023-02-14T07:52:49;99484.63;;;7.46;82.85
14242;BME280;7205;50.864;12.766;2023-02-14T07:55:16;99482.44;;;7.40;83.39
14242;BME280;7205;50.864;12.766;2023-02-14T07:57:46;99484.75;;;7.32;83.46
14242;BME280;7205;50.864;12.766;2023-02-14T08:00:13;99479.00;;;7.27;83.80
14242;BME280;7205;50.864;12.766;2023-02-14T08:02:40;99489.84;;;7.22;83.88
14242;BME280;7205;50.864;12.766;2023-02-14T08:05:07;99483.03;;;7.20;83.97
14242;BME280;7205;50.864;12.766;2023-02-14T08:07:34;99481.56;;;7.16;83.98
14242;BME280;7205;50.864;12.766;2023-02-14T08:10:04;99482.28;;;7.18;84.41
14242;BME280;7205;50.864;12.766;2023-02-14T08:12:30;99479.66;;;7.18;84.63
14242;BME280;7205;50.864;12.766;2023-02-14T08:15:15;99484.06;;;7.17;84.89
14242;BME280;7205;50.864;12.766;2023-02-14T08:17:59;99491.00;;;7.18;84.93
14242;BME280;7205;50.864;12.766;2023-02-14T08:20:26;99486.69;;;7.17;84.89
14242;BME280;7205;50.864;12.766;2023-02-14T08:22:53;99482.41;;;7.16;84.75
14242;BME280;7205;50.864;12.766;2023-02-14T08:25:21;99487.53;;;7.18;84.76
14242;BME280;7205;50.864;12.766;2023-02-14T08:27:48;99480.41;;;7.20;84.63
14242;BME280;7205;50.864;12.766;2023-02-14T08:30:15;99479.44;;;7.21;84.43
14242;BME280;7205;50.864;12.766;2023-02-14T08:32:43;99492.34;;;7.24;84.25
14242;BME280;7205;50.864;12.766;2023-02-14T08:35:10;99488.06;;;7.23;84.21
14242;BME280;7205;50.864;12.766;2023-02-14T08:37:36;99478.59;;;7.20;83.62
14242;BME280;7205;50.864;12.766;2023-02-14T08:40:04;99488.16;;;7.21;83.46
14242;BME280;7205;50.864;12.766;2023-02-14T08:42:33;99487.44;;;7.19;83.18
14242;BME280;7205;50.864;12.766;2023-02-14T08:45:00;99491.84;;;7.19;82.77
14242;BME280;7205;50.864;12.766;2023-02-14T08:47:27;99490.91;;;7.20;83.27
14242;BME280;7205;50.864;12.766;2023-02-14T08:49:54;99479.56;;;7.19;82.87
14242;BME280;7205;50.864;12.766;2023-02-14T08:52:21;99494.34;;;7.20;82.67
14242;BME280;7205;50.864;12.766;2023-02-14T08:54:48;99490.78;;;7.21;82.72
14242;BME280;7205;50.864;12.766;2023-02-14T08:57:14;99487.22;;;7.22;82.60
14242;BME280;7205;50.864;12.766;2023-02-14T08:59:43;99494.97;;;7.24;82.36
14242;BME280;7205;50.864;12.766;2023-02-14T09:02:11;99490.56;;;7.24;81.99
14242;BME280;7205;50.864;12.766;2023-02-14T09:04:38;99491.50;;;7.23;81.90
14242;BME280;7205;50.864;12.766;2023-02-14T09:07:05;99491.19;;;7.28;81.68
14242;BME280;7205;50.864;12.766;2023-02-14T09:09:32;99489.38;;;7.28;82.32
14242;BME280;7205;50.864;12.766;2023-02-14T09:12:02;99491.59;;;7.34;82.07
14242;BME280;7205;50.864;12.766;2023-02-14T09:14:34;99485.38;;;7.35;82.10
14242;BME280;7205;50.864;12.766;2023-02-14T09:17:03;99486.84;;;7.39;82.21
14242;BME280;7205;50.864;12.766;2023-02-14T09:19:31;99483.88;;;7.44;82.23
14242;BME280;7205;50.864;12.766;2023-02-14T09:21:58;99484.50;;;7.47;82.34
14242;BME280;7205;50.864;12.766;2023-02-14T09:24:25;99480.00;;;7.49;82.34
14242;BME280;7205;50.864;12.766;2023-02-14T09:26:52;99484.78;;;7.55;82.33
14242;BME280;7205;50.864;12.766;2023-02-14T09:29:19;99485.53;;;7.57;82.33
14242;BME280;7205;50.864;12.766;2023-02-14T09:31:46;99479.22;;;7.60;82.19
14242;BME280;7205;50.864;12.766;2023-02-14T09:34:14;99479.91;;;7.62;82.11
14242;BME280;7205;50.864;12.766;2023-02-14T09:36:41;99477.19;;;7.63;82.40
14242;BME280;7205;50.864;12.766;2023-02-14T09:39:08;99478.53;;;7.69;81.95
14242;BME280;7205;50.864;12.766;2023-02-14T09:42:09;99483.69;;;7.71;82.03
14242;BME280;7205;50.864;12.766;2023-02-14T09:44:43;99481.03;;;7.71;81.68
14242;BME280;7205;50.864;12.766;2023-02-14T09:47:19;99481.03;;;7.71;81.74
14242;BME280;7205;50.864;12.766;2023-02-14T09:49:49;99477.38;;;7.73;81.27
14242;BME280;7205;50.864;12.766;2023-02-14T09:52:19;99479.88;;;7.75;80.83
14242;BME280;7205;50.864;12.766;2023-02-14T09:54:50;99476.28;;;7.76;81.25
14242;BME280;7205;50.864;12.766;2023-02-14T09:57:23;99481.34;;;7.79;81.04
14242;BME280;7205;50.864;12.766;2023-02-14T09:59:56;99480.16;;;7.83;80.90
14242;BME280;7205;50.864;12.766;2023-02-14T10:02:37;99470.59;;;7.82;80.86
14242;BME280;7205;50.864;12.766;2023-02-14T10:05:10;99474.66;;;7.86;80.83
14242;BME280;7205;50.864;12.766;2023-02-14T10:07:49;99477.19;;;7.87;80.60
14242;BME280;7205;50.864;12.766;2023-02-14T10:10:21;99481.38;;;7.90;80.59
14242;BME280;7205;50.864;12.766;2023-02-14T10:12:54;99478.66;;;7.91;79.96
14242;BME280;7205;50.864;12.766;2023-02-14T10:15:24;99479.38;;;7.93;80.45
14242;BME280;7205;50.864;12.766;2023-02-14T10:17:54;99474.97;;;7.94;80.49
14242;BME280;7205;50.864;12.766;2023-02-14T10:20:26;99486.06;;;7.97;80.02
14242;BME280;7205;50.864;12.766;2023-02-14T10:23:21;99478.69;;;8.02;80.16
14242;BME280;7205;50.864;12.766;2023-02-14T10:25:53;99481.91;;;8.06;80.77
14242;BME280;7205;50.864;12.766;2023-02-14T10:28:25;99487.69;;;8.11;80.16
14242;BME280;7205;50.864;12.766;2023-02-14T10:31:04;99484.72;;;8.15;80.14
14242;BME280;7205;50.864;12.766;2023-02-14T10:33:37;99483.41;;;8.21;80.60
14242;BME280;7205;50.864;12.766;2023-02-14T10:36:15;99480.59;;;8.24;80.04
14242;BME280;7205;50.864;12.766;2023-02-14T10:38:50;99475.91;;;8.27;79.75
14242;BME280;7205;50.864;12.766;2023-02-14T10:41:27;99475.84;;;8.29;79.76
14242;BME280;7205;50.864;12.766;2023-02-14T10:44:07;99471.16;;;8.32;79.71
14242;BME280;7205;50.864;12.766;2023-02-14T10:46:44;99465.69;;;8.35;79.13
14242;BME280;7205;50.864;12.766;2023-02-14T10:49:28;99464.47;;;8.39;79.50
14242;BME280;7205;50.864;12.766;2023-02-14T10:52:06;99462.44;;;8.43;79.19
14242;BME280;7205;50.864;12.766;2023-02-14T10:54:39;99464.84;;;8.46;79.26
14242;BME280;7205;50.864;12.766;2023-02-14T10:57:12;99462.81;;;8.49;79.00
14242;BME280;7205;50.864;12.766;2023-02-14T10:59:46;99461.63;;;8.53;79.39
14242;BME280;7205;50.864;12.766;2023-02-14T11:02:18;99457.09;;;8.55;78.94
14242;BME280;7205;50.864;12.766;2023-02-14T11:04:47;99454.94;;;8.60;78.17
14242;BME280;7205;50.864;12.766;2023-02-14T11:07:17;99455.44;;;8.65;78.28
14242;BME280;7205;50.864;12.766;2023-02-14T11:09:44;99450.88;;;8.67;77.64
14242;BME280;7205;50.864;12.766;2023-02-14T11:12:11;99440.81;;;8.72;77.99
14242;BME280;7205;50.864;12.766;2023-02-14T11:15:08;99444.03;;;8.76;77.38
14242;BME280;7205;50.864;12.766;2023-02-14T11:17:35;99446.47;;;8.79;76.74
14242;BME280;7205;50.864;12.766;2023-02-14T11:20:12;99444.41;;;8.82;77.40
14242;BME280;7205;50.864;12.766;2023-02-14T11:22:49;99436.28;;;8.85;76.86
14242;BME280;7205;50.864;12.766;2023-02-14T11:25:18;99440.47;;;8.88;77.08
14242;BME280;7205;50.864;12.766;2023-02-14T11:27:47;99433.03;;;8.93;77.02
14242;BME280;7205;50.864;12.766;2023-02-14T11:30:21;99435.53;;;8.95;76.32
14242;BME280;7205;50.864;12.766;2023-02-14T11:32:54;99429.34;;;8.96;76.00
14242;BME280;7205;50.864;12.766;2023-02-14T11:35:22;99424.75;;;8.98;76.28
14242;BME280;7205;50.864;12.766;2023-02-14T11:37:54;99417.56;;;9.00;76.02
14242;BME280;7205;50.864;12.766;2023-02-14T11:40:25;99413.88;;;9.02;75.76
14242;BME280;7205;50.864;12.766;2023-02-14T11:42:53;99419.88;;;9.04;75.80
14242;BME280;7205;50.864;12.766;2023-02-14T11:45:30;99416.13;;;9.07;75.99
14242;BME280;7205;50.864;12.766;2023-02-14T11:48:14;99404.53;;;9.09;75.34
14242;BME280;7205;50.864;12.766;2023-02-14T11:50:42;99401.53;;;9.14;75.77
14242;BME280;7205;50.864;12.766;2023-02-14T11:53:12;99404.03;;;9.15;75.34
14242;BME280;7205;50.864;12.766;2023-02-14T11:55:50;99396.97;;;9.16;75.43
14242;BME280;7205;50.864;12.766;2023-02-14T11:58:31;99390.59;;;9.18;75.51
14242;BME280;7205;50.864;12.766;2023-02-14T12:00:59;99381.75;;;9.19;74.96
14242;BME280;7205;50.864;12.766;2023-02-14T12:03:29;99380.66;;;9.22;75.08
14242;BME280;7205;50.864;12.766;2023-02-14T12:05:58;99381.50;;;9.22;75.32
14242;BME280;7205;50.864;12.766;2023-02-14T12:08:29;99376.09;;;9.24;75.30
14242;BME280;7205;50.864;12.766;2023-02-14T12:11:01;99376.09;;;9.24;74.38
14242;BME280;7205;50.864;12.766;2023-02-14T12:13:29;99369.84;;;9.25;74.70
14242;BME280;7205;50.864;12.766;2023-02-14T12:15:56;99373.09;;;9.28;74.92
14242;BME280;7205;50.864;12.766;2023-02-14T12:18:34;99374.66;;;9.31;75.09
14242;BME280;7205;50.864;12.766;2023-02-14T12:21:10;99371.88;;;9.32;74.65
14242;BME280;7205;50.864;12.766;2023-02-14T12:23:49;99367.34;;;9.34;74.12
14242;BME280;7205;50.864;12.766;2023-02-14T12:26:23;99359.28;;;9.36;74.08
14242;BME280;7205;50.864;12.766;2023-02-14T12:28:57;99359.16;;;9.37;74.71
14242;BME280;7205;50.864;12.766;2023-02-14T12:31:28;99359.88;;;9.39;74.19
14242;BME280;7205;50.864;12.766;2023-02-14T12:33:55;99359.75;;;9.41;73.72
14242;BME280;7205;50.864;12.766;2023-02-14T12:36:45;99359.75;;;9.41;74.18
14242;BME280;7205;50.864;12.766;2023-02-14T12:39:21;99359.63;;;9.42;73.67
14242;BME280;7205;50.864;12.766;2023-02-14T12:41:57;99355.16;;;9.43;73.21
14242;BME280;7205;50.864;12.766;2023-02-14T12:44:34;99348.94;;;9.44;73.86
14242;BME280;7205;50.864;12.766;2023-02-14T12:47:15;99341.88;;;9.44;73.61
14242;BME280;7205;50.864;12.766;2023-02-14T12:49:58;99338.16;;;9.47;73.67
14242;BME280;7205;50.864;12.766;2023-02-14T12:52:43;99334.53;;;9.48;73.59
14242;BME280;7205;50.864;12.766;2023-02-14T12:55:28;99333.59;;;9.49;73.61
14242;BME280;7205;50.864;12.766;2023-02-14T12:58:11;99335.25;;;9.50;73.24
14242;BME280;7205;50.864;12.766;2023-02-14T13:00:50;99335.13;;;9.51;72.81
14242;BME280;7205;50.864;12.766;2023-02-14T13:06:17;99338.09;;;9.58;72.88
14242;BME280;7205;50.864;12.766;2023-02-14T13:09:08;99324.81;;;9.59;73.38
14242;BME280;7205;50.864;12.766;2023-02-14T13:11:50;99326.19;;;9.63;73.04
14242;BME280;7205;50.864;12.766;2023-02-14T13:14:37;99327.03;;;9.64;72.52
14242;BME280;7205;50.864;12.766;2023-02-14T13:17:14;99318.16;;;9.65;72.84
14242;BME280;7205;50.864;12.766;2023-02-14T13:19:50;99310.97;;;9.67;72.42
14242;BME280;7205;50.864;12.766;2023-02-14T13:22:23;99309.03;;;9.69;72.15
14242;BME280;7205;50.864;12.766;2023-02-14T13:24:55;99308.78;;;9.72;72.57
14242;BME280;7205;50.864;12.766;2023-02-14T13:27:30;99310.34;;;9.74;72.09
14242;BME280;7205;50.864;12.766;2023-02-14T13:29:59;99301.31;;;9.77;72.02
14242;BME280;7205;50.864;12.766;2023-02-14T13:32:31;99294.09;;;9.79;71.52
14242;BME280;7205;50.864;12.766;2023-02-14T13:34:59;99298.28;;;9.81;71.61
14242;BME280;7205;50.864;12.766;2023-02-14T13:37:27;99298.84;;;9.85;71.89